Airfield :
LOGIN :

Register | Disclaimer

   EN    FR    IT 

 










Legend :    VFR   Marginal VFR   IFR   Intensive IFR   Very Intensive IFR
Visi :
Ceiling :
>= 8 km
>= 3000ft
5 to 8 km
1000 to 3000 ft
1500m to 5 km
500 to 1000 ft
800 to 1500m
200 to 500 ft
< 800m
< 200 ft
Symbols :   Thunderstorms  Fog  Heavy snow  Heavy precipitations  Wind > 20 kt
SIGMETs :     Misc.  Thunderstorms  Icing  Turbulence  Mountain Waves  Volcanic Ashes






- Airport Elevation : 266 ft
- IATA code : NCL


EGNT - Newcastle

CURRENT METAR :
  • 290520Z 26011KT 9999 FEW014 SCT024 13/11 Q1000

EXPIRED METARs :
  • 290450Z 26014KT 9999 FEW014 SCT024 13/11 Q0999
  • 290420Z AUTO 26012KT 9999 OVC013/// 13/11 Q0999
  • 290350Z AUTO 26011KT 9999 BKN012/// OVC021/// 13/11 Q0999
  • 290320Z AUTO 26011KT 9999 BKN011/// OVC022/// 13/11 Q0999
  • 290250Z AUTO 25008KT 9999 BKN013/// OVC025/// 13/11 Q0999

TAF TAF EGNT
Valid from the 29 at 06:00 until the 30 at 06:00 UTC


290459Z 2906/3006 26010KT 9999 FEW012 SCT025
TEMPO 2906/2909 BKN012
PROB40
TEMPO 2906/2909 6000 -RADZ BKN008
TEMPO 2911/2918 6000 SHRA
PROB30
TEMPO 2913/2917 3000 +SHRAGS TS BKN014 BKN025CB
ATIS : +44 191 214 3400



MET'MAP, your aeronautical weather chart ! - Copyright ORBIFLY December 2007 - Disclaimer

ORBIFLY MET'MAP TEAM :

Programming & Development : Alexandra Zaïnal
Concept & original design : Baudouin d'Aumeries
Assistance for programming : Marc-Olivier Méhu
Technical & hardware support : Manuel Goepfert

Contact : metmap@orbifly.com




SOURCES & CREDITS :

   NOAA